TAF Text Data
IDs:
Format:
Raw Decoded Include METAR

Data at: 1308 UTC 20 Oct 2021

KSLN 201253Z 31013G21KT 10SM BKN015 12/08 A3002 RMK AO2 SLP160 T01170083

KSLN 201135Z 2012/2112 27015G23KT P6SM BKN012
  FM201300 28015G23KT P6SM BKN015
  FM201900 30017KT P6SM SKC


KATW 201245Z VRB04KT 10SM FEW035 SCT090 10/07 A3000

KATW 201139Z 2012/2112 22005KT P6SM SCT100
  FM201400 03007KT P6SM SCT110
  FM201700 04009KT P6SM VCSH BKN080
  FM201900 06008G16KT P6SM -SHRA BKN035
  FM202200 06009G17KT P6SM -SHRA BKN020
  FM210300 05008G15KT 5SM -SHRA OVC008